LFOH 211100Z AUTO 05007KT 010V070 9999 FEW026 OVC037 06/01 Q1040 NOSIG

ElémentsDécodage
LFOH Station météo située sur l'aérodrome de LE-HAVRE Octeville
211100Z émis le 21 du mois à 11h00 UTC
AUTO Bulletin édité par un automate
05007KT vent du 050°, 07 noeuds
010V070 vent de direction variable entre 010° et 070°
9999 visibilité horizontale supérieure à 10 Km
FEW026 nuages rares (1/8 à 2/8) à 2600 pieds
OVC037 couverture nuageuse totale (8/8) à 3700 pieds
06/01 température 06°C, point de rosée 01°C
 soit une humidité relative de 70%
Q1040 la pression au niveau de la mer (QNH) est de 1040 hPa
NOSIG Pas de changement significatif prévu au cours des deux heures suivant l'heure de l'observation